Contact Info

Augusta Flying Club, Inc

KDNL 282153Z AUTO VRB04KT 10SM CLR 18/07 A2998 RMK AO2 SLP151 T01830067


TAF AMD KDNL 282103Z 2821/2918 27010KT P6SM SKC FM290000 VRB03KT P6SM SKC FM291400 12005KT P6SM SKC

info@augustaflyingclub.com

Send us a message